sensor_id;sensor_type;location;lat;lon;timestamp;P1;durP1;ratioP1;P2;durP2;ratioP2
48767;SDS011;34933;40.968;14.538;2022-10-16T00:00:51;22.95;;;16.23;;
48767;SDS011;34933;40.968;14.538;2022-10-16T00:03:36;21.60;;;17.45;;
48767;SDS011;34933;40.968;14.538;2022-10-16T00:06:22;22.10;;;16.90;;
48767;SDS011;34933;40.968;14.538;2022-10-16T00:09:07;21.02;;;16.75;;
48767;SDS011;34933;40.968;14.538;2022-10-16T00:11:52;22.02;;;17.38;;
48767;SDS011;34933;40.968;14.538;2022-10-16T00:14:36;20.35;;;17.25;;
48767;SDS011;34933;40.968;14.538;2022-10-16T00:17:21;22.58;;;17.02;;
48767;SDS011;34933;40.968;14.538;2022-10-16T00:20:06;22.98;;;17.38;;
48767;SDS011;34933;40.968;14.538;2022-10-16T00:22:52;24.52;;;17.88;;
48767;SDS011;34933;40.968;14.538;2022-10-16T00:25:36;24.40;;;18.27;;
48767;SDS011;34933;40.968;14.538;2022-10-16T00:28:21;22.10;;;18.33;;
48767;SDS011;34933;40.968;14.538;2022-10-16T00:31:06;22.15;;;17.65;;
48767;SDS011;34933;40.968;14.538;2022-10-16T00:33:54;24.25;;;18.38;;
48767;SDS011;34933;40.968;14.538;2022-10-16T00:36:39;25.13;;;19.25;;
48767;SDS011;34933;40.968;14.538;2022-10-16T00:39:24;25.48;;;19.15;;
48767;SDS011;34933;40.968;14.538;2022-10-16T00:42:11;24.65;;;19.25;;
48767;SDS011;34933;40.968;14.538;2022-10-16T00:44:59;26.27;;;19.17;;
48767;SDS011;34933;40.968;14.538;2022-10-16T00:47:44;24.27;;;19.55;;
48767;SDS011;34933;40.968;14.538;2022-10-16T00:50:33;28.27;;;18.70;;
48767;SDS011;34933;40.968;14.538;2022-10-16T00:53:18;24.88;;;18.48;;
48767;SDS011;34933;40.968;14.538;2022-10-16T00:56:03;24.63;;;18.88;;
48767;SDS011;34933;40.968;14.538;2022-10-16T00:58:48;24.27;;;19.27;;
48767;SDS011;34933;40.968;14.538;2022-10-16T01:01:33;29.08;;;19.17;;
48767;SDS011;34933;40.968;14.538;2022-10-16T01:04:17;24.52;;;18.33;;
48767;SDS011;34933;40.968;14.538;2022-10-16T01:13:21;26.95;;;18.52;;
48767;SDS011;34933;40.968;14.538;2022-10-16T01:22:09;22.67;;;18.38;;
48767;SDS011;34933;40.968;14.538;2022-10-16T01:24:54;24.80;;;18.38;;
48767;SDS011;34933;40.968;14.538;2022-10-16T01:27:43;22.48;;;18.23;;
48767;SDS011;34933;40.968;14.538;2022-10-16T01:30:30;28.00;;;19.08;;
48767;SDS011;34933;40.968;14.538;2022-10-16T01:33:19;22.92;;;18.48;;
48767;SDS011;34933;40.968;14.538;2022-10-16T01:36:10;26.25;;;19.05;;
48767;SDS011;34933;40.968;14.538;2022-10-16T01:38:59;24.50;;;18.33;;
48767;SDS011;34933;40.968;14.538;2022-10-16T01:41:47;25.63;;;18.45;;
48767;SDS011;34933;40.968;14.538;2022-10-16T01:44:35;25.65;;;17.98;;
48767;SDS011;34933;40.968;14.538;2022-10-16T01:47:22;35.42;;;18.48;;
48767;SDS011;34933;40.968;14.538;2022-10-16T01:50:08;20.60;;;17.05;;
48767;SDS011;34933;40.968;14.538;2022-10-16T01:52:54;21.77;;;16.65;;
48767;SDS011;34933;40.968;14.538;2022-10-16T01:55:43;21.05;;;17.30;;
48767;SDS011;34933;40.968;14.538;2022-10-16T01:58:30;20.85;;;17.27;;
48767;SDS011;34933;40.968;14.538;2022-10-16T02:01:19;22.90;;;16.83;;
48767;SDS011;34933;40.968;14.538;2022-10-16T02:04:11;23.45;;;16.60;;
48767;SDS011;34933;40.968;14.538;2022-10-16T02:07:01;21.60;;;16.52;;
48767;SDS011;34933;40.968;14.538;2022-10-16T02:09:45;18.08;;;15.95;;
48767;SDS011;34933;40.968;14.538;2022-10-16T02:12:33;21.33;;;17.35;;
48767;SDS011;34933;40.968;14.538;2022-10-16T02:15:23;23.38;;;16.23;;
48767;SDS011;34933;40.968;14.538;2022-10-16T02:18:08;21.40;;;16.92;;
48767;SDS011;34933;40.968;14.538;2022-10-16T02:26:40;22.70;;;17.15;;
48767;SDS011;34933;40.968;14.538;2022-10-16T02:29:27;20.58;;;16.20;;
48767;SDS011;34933;40.968;14.538;2022-10-16T02:32:12;21.80;;;15.65;;
48767;SDS011;34933;40.968;14.538;2022-10-16T02:34:59;19.13;;;15.60;;
48767;SDS011;34933;40.968;14.538;2022-10-16T02:37:46;22.25;;;15.55;;
48767;SDS011;34933;40.968;14.538;2022-10-16T02:40:32;23.83;;;16.33;;
48767;SDS011;34933;40.968;14.538;2022-10-16T02:43:17;18.88;;;14.98;;
48767;SDS011;34933;40.968;14.538;2022-10-16T02:46:03;25.77;;;16.52;;
48767;SDS011;34933;40.968;14.538;2022-10-16T02:48:47;20.45;;;15.93;;
48767;SDS011;34933;40.968;14.538;2022-10-16T02:51:32;17.88;;;14.88;;
48767;SDS011;34933;40.968;14.538;2022-10-16T02:54:16;19.35;;;15.15;;
48767;SDS011;34933;40.968;14.538;2022-10-16T02:57:01;25.00;;;15.02;;
48767;SDS011;34933;40.968;14.538;2022-10-16T02:59:46;17.50;;;13.98;;
48767;SDS011;34933;40.968;14.538;2022-10-16T03:02:30;17.63;;;13.52;;
48767;SDS011;34933;40.968;14.538;2022-10-16T03:05:15;23.35;;;14.40;;
48767;SDS011;34933;40.968;14.538;2022-10-16T03:07:59;19.33;;;14.40;;
48767;SDS011;34933;40.968;14.538;2022-10-16T03:10:44;19.17;;;15.60;;
48767;SDS011;34933;40.968;14.538;2022-10-16T03:13:28;20.30;;;16.17;;
48767;SDS011;34933;40.968;14.538;2022-10-16T03:16:13;23.98;;;16.17;;
48767;SDS011;34933;40.968;14.538;2022-10-16T03:18:57;19.70;;;15.35;;
48767;SDS011;34933;40.968;14.538;2022-10-16T03:21:42;26.52;;;16.10;;
48767;SDS011;34933;40.968;14.538;2022-10-16T03:24:27;20.23;;;15.35;;
48767;SDS011;34933;40.968;14.538;2022-10-16T03:27:11;24.55;;;15.43;;
48767;SDS011;34933;40.968;14.538;2022-10-16T03:29:56;21.20;;;14.70;;
48767;SDS011;34933;40.968;14.538;2022-10-16T03:32:40;21.70;;;14.60;;
48767;SDS011;34933;40.968;14.538;2022-10-16T03:35:25;19.67;;;15.40;;
48767;SDS011;34933;40.968;14.538;2022-10-16T03:38:09;19.40;;;14.38;;
48767;SDS011;34933;40.968;14.538;2022-10-16T03:40:54;18.08;;;13.38;;
48767;SDS011;34933;40.968;14.538;2022-10-16T03:43:39;17.77;;;13.82;;
48767;SDS011;34933;40.968;14.538;2022-10-16T03:46:23;20.25;;;14.10;;
48767;SDS011;34933;40.968;14.538;2022-10-16T03:49:08;17.55;;;13.77;;
48767;SDS011;34933;40.968;14.538;2022-10-16T03:51:52;17.77;;;13.23;;
48767;SDS011;34933;40.968;14.538;2022-10-16T03:54:37;16.67;;;13.38;;
48767;SDS011;34933;40.968;14.538;2022-10-16T03:57:22;18.27;;;14.65;;
48767;SDS011;34933;40.968;14.538;2022-10-16T04:00:06;17.48;;;14.25;;
48767;SDS011;34933;40.968;14.538;2022-10-16T04:02:55;19.13;;;15.27;;
48767;SDS011;34933;40.968;14.538;2022-10-16T04:05:40;19.48;;;14.32;;
48767;SDS011;34933;40.968;14.538;2022-10-16T04:08:25;19.15;;;15.15;;
48767;SDS011;34933;40.968;14.538;2022-10-16T04:11:09;17.95;;;13.82;;
48767;SDS011;34933;40.968;14.538;2022-10-16T04:13:54;17.88;;;13.93;;
48767;SDS011;34933;40.968;14.538;2022-10-16T04:16:38;15.68;;;13.50;;
48767;SDS011;34933;40.968;14.538;2022-10-16T04:19:23;21.50;;;15.23;;
48767;SDS011;34933;40.968;14.538;2022-10-16T04:22:08;18.85;;;15.15;;
48767;SDS011;34933;40.968;14.538;2022-10-16T04:24:52;18.17;;;14.05;;
48767;SDS011;34933;40.968;14.538;2022-10-16T04:27:37;19.55;;;14.38;;
48767;SDS011;34933;40.968;14.538;2022-10-16T04:30:22;16.95;;;13.82;;
48767;SDS011;34933;40.968;14.538;2022-10-16T04:33:08;18.55;;;13.15;;
48767;SDS011;34933;40.968;14.538;2022-10-16T04:35:57;17.88;;;13.52;;
48767;SDS011;34933;40.968;14.538;2022-10-16T04:38:42;21.25;;;14.13;;
48767;SDS011;34933;40.968;14.538;2022-10-16T04:41:26;18.95;;;14.90;;
48767;SDS011;34933;40.968;14.538;2022-10-16T04:44:11;24.50;;;14.95;;
48767;SDS011;34933;40.968;14.538;2022-10-16T04:46:55;18.65;;;14.90;;
48767;SDS011;34933;40.968;14.538;2022-10-16T04:49:40;24.85;;;16.20;;
48767;SDS011;34933;40.968;14.538;2022-10-16T04:52:25;17.70;;;14.73;;
48767;SDS011;34933;40.968;14.538;2022-10-16T04:55:10;18.83;;;14.90;;
48767;SDS011;34933;40.968;14.538;2022-10-16T04:57:54;23.52;;;15.70;;
48767;SDS011;34933;40.968;14.538;2022-10-16T05:00:39;21.20;;;14.60;;
48767;SDS011;34933;40.968;14.538;2022-10-16T05:03:23;21.38;;;16.17;;
48767;SDS011;34933;40.968;14.538;2022-10-16T05:06:08;27.67;;;19.55;;
48767;SDS011;34933;40.968;14.538;2022-10-16T05:08:53;29.85;;;19.95;;
48767;SDS011;34933;40.968;14.538;2022-10-16T05:11:37;22.17;;;16.23;;
48767;SDS011;34933;40.968;14.538;2022-10-16T05:14:22;24.98;;;16.27;;
48767;SDS011;34933;40.968;14.538;2022-10-16T05:17:06;23.60;;;17.20;;
48767;SDS011;34933;40.968;14.538;2022-10-16T05:19:51;20.90;;;16.23;;
48767;SDS011;34933;40.968;14.538;2022-10-16T05:22:35;21.73;;;17.67;;
48767;SDS011;34933;40.968;14.538;2022-10-16T05:25:20;24.63;;;18.00;;
48767;SDS011;34933;40.968;14.538;2022-10-16T05:28:05;26.13;;;18.85;;
48767;SDS011;34933;40.968;14.538;2022-10-16T05:30:50;20.85;;;15.50;;
48767;SDS011;34933;40.968;14.538;2022-10-16T05:33:34;18.02;;;15.25;;
48767;SDS011;34933;40.968;14.538;2022-10-16T05:36:19;19.58;;;15.25;;
48767;SDS011;34933;40.968;14.538;2022-10-16T05:39:03;20.73;;;14.55;;
48767;SDS011;34933;40.968;14.538;2022-10-16T05:41:49;19.08;;;14.88;;
48767;SDS011;34933;40.968;14.538;2022-10-16T05:44:34;20.92;;;14.95;;
48767;SDS011;34933;40.968;14.538;2022-10-16T05:47:18;20.75;;;14.02;;
48767;SDS011;34933;40.968;14.538;2022-10-16T05:50:04;19.25;;;13.50;;
48767;SDS011;34933;40.968;14.538;2022-10-16T05:52:49;21.63;;;14.60;;
48767;SDS011;34933;40.968;14.538;2022-10-16T05:55:34;16.55;;;14.10;;
48767;SDS011;34933;40.968;14.538;2022-10-16T05:58:19;15.23;;;13.63;;
48767;SDS011;34933;40.968;14.538;2022-10-16T06:01:06;16.77;;;13.60;;
48767;SDS011;34933;40.968;14.538;2022-10-16T06:03:54;16.05;;;11.80;;
48767;SDS011;34933;40.968;14.538;2022-10-16T06:06:39;13.23;;;10.00;;
48767;SDS011;34933;40.968;14.538;2022-10-16T06:09:24;12.60;;;9.68;;
48767;SDS011;34933;40.968;14.538;2022-10-16T06:12:08;14.48;;;9.85;;
48767;SDS011;34933;40.968;14.538;2022-10-16T06:14:53;13.07;;;8.70;;
48767;SDS011;34933;40.968;14.538;2022-10-16T06:17:37;12.20;;;10.05;;
48767;SDS011;34933;40.968;14.538;2022-10-16T06:20:22;12.57;;;10.20;;
48767;SDS011;34933;40.968;14.538;2022-10-16T06:23:07;14.20;;;11.02;;
48767;SDS011;34933;40.968;14.538;2022-10-16T06:25:51;15.07;;;12.73;;
48767;SDS011;34933;40.968;14.538;2022-10-16T06:28:36;15.95;;;11.88;;
48767;SDS011;34933;40.968;14.538;2022-10-16T06:31:21;22.02;;;13.90;;
48767;SDS011;34933;40.968;14.538;2022-10-16T06:34:08;20.70;;;16.60;;
48767;SDS011;34933;40.968;14.538;2022-10-16T06:36:54;20.92;;;15.70;;
48767;SDS011;34933;40.968;14.538;2022-10-16T06:39:39;13.10;;;11.63;;
48767;SDS011;34933;40.968;14.538;2022-10-16T06:42:23;13.13;;;10.07;;
48767;SDS011;34933;40.968;14.538;2022-10-16T06:45:09;12.05;;;10.40;;
48767;SDS011;34933;40.968;14.538;2022-10-16T06:47:54;12.55;;;8.70;;
48767;SDS011;34933;40.968;14.538;2022-10-16T06:50:38;10.77;;;9.18;;
48767;SDS011;34933;40.968;14.538;2022-10-16T06:53:23;16.63;;;12.35;;
48767;SDS011;34933;40.968;14.538;2022-10-16T06:56:19;15.25;;;11.07;;
48767;SDS011;34933;40.968;14.538;2022-10-16T06:59:05;17.27;;;12.15;;
48767;SDS011;34933;40.968;14.538;2022-10-16T07:01:49;13.32;;;10.80;;
48767;SDS011;34933;40.968;14.538;2022-10-16T07:04:35;14.32;;;10.23;;
48767;SDS011;34933;40.968;14.538;2022-10-16T07:07:19;14.82;;;10.35;;
48767;SDS011;34933;40.968;14.538;2022-10-16T07:10:04;15.82;;;11.55;;
48767;SDS011;34933;40.968;14.538;2022-10-16T07:12:49;27.23;;;13.00;;
48767;SDS011;34933;40.968;14.538;2022-10-16T07:15:34;14.10;;;10.90;;
48767;SDS011;34933;40.968;14.538;2022-10-16T07:18:18;14.50;;;11.32;;
48767;SDS011;34933;40.968;14.538;2022-10-16T07:21:06;13.93;;;10.18;;
48767;SDS011;34933;40.968;14.538;2022-10-16T07:23:53;13.15;;;9.90;;
48767;SDS011;34933;40.968;14.538;2022-10-16T07:26:38;18.88;;;11.07;;
48767;SDS011;34933;40.968;14.538;2022-10-16T07:29:24;13.45;;;11.00;;
48767;SDS011;34933;40.968;14.538;2022-10-16T07:32:08;15.00;;;11.02;;
48767;SDS011;34933;40.968;14.538;2022-10-16T07:34:53;14.75;;;10.90;;
48767;SDS011;34933;40.968;14.538;2022-10-16T07:37:39;13.48;;;10.68;;
48767;SDS011;34933;40.968;14.538;2022-10-16T07:40:28;17.40;;;11.88;;
48767;SDS011;34933;40.968;14.538;2022-10-16T07:43:13;18.10;;;11.63;;
48767;SDS011;34933;40.968;14.538;2022-10-16T07:45:58;11.75;;;10.55;;
48767;SDS011;34933;40.968;14.538;2022-10-16T07:48:43;15.57;;;12.82;;
48767;SDS011;34933;40.968;14.538;2022-10-16T07:51:31;20.38;;;14.38;;
48767;SDS011;34933;40.968;14.538;2022-10-16T07:54:15;18.88;;;12.65;;
48767;SDS011;34933;40.968;14.538;2022-10-16T07:57:00;23.35;;;15.13;;
48767;SDS011;34933;40.968;14.538;2022-10-16T07:59:45;58.58;;;19.00;;
48767;SDS011;34933;40.968;14.538;2022-10-16T08:02:30;19.80;;;15.85;;
48767;SDS011;34933;40.968;14.538;2022-10-16T08:05:15;25.38;;;18.50;;
48767;SDS011;34933;40.968;14.538;2022-10-16T08:08:01;23.45;;;18.35;;
48767;SDS011;34933;40.968;14.538;2022-10-16T08:10:46;30.63;;;22.73;;
48767;SDS011;34933;40.968;14.538;2022-10-16T08:13:31;33.15;;;22.33;;
48767;SDS011;34933;40.968;14.538;2022-10-16T08:16:15;30.52;;;23.88;;
48767;SDS011;34933;40.968;14.538;2022-10-16T08:19:00;34.05;;;24.33;;
48767;SDS011;34933;40.968;14.538;2022-10-16T08:21:48;27.02;;;23.00;;
48767;SDS011;34933;40.968;14.538;2022-10-16T08:24:32;31.35;;;23.85;;
48767;SDS011;34933;40.968;14.538;2022-10-16T08:27:18;30.42;;;24.10;;
48767;SDS011;34933;40.968;14.538;2022-10-16T08:30:03;30.10;;;23.95;;
48767;SDS011;34933;40.968;14.538;2022-10-16T08:32:48;31.33;;;23.42;;
48767;SDS011;34933;40.968;14.538;2022-10-16T08:35:33;40.70;;;26.65;;
48767;SDS011;34933;40.968;14.538;2022-10-16T08:38:17;35.88;;;26.17;;
48767;SDS011;34933;40.968;14.538;2022-10-16T08:50:40;30.08;;;24.23;;
48767;SDS011;34933;40.968;14.538;2022-10-16T08:53:44;32.55;;;23.63;;
48767;SDS011;34933;40.968;14.538;2022-10-16T08:56:33;32.75;;;26.38;;
48767;SDS011;34933;40.968;14.538;2022-10-16T08:59:18;34.05;;;25.50;;
48767;SDS011;34933;40.968;14.538;2022-10-16T09:02:03;36.35;;;25.58;;
48767;SDS011;34933;40.968;14.538;2022-10-16T09:08:05;35.10;;;26.02;;
48767;SDS011;34933;40.968;14.538;2022-10-16T09:11:01;37.15;;;29.20;;
48767;SDS011;34933;40.968;14.538;2022-10-16T09:14:11;41.13;;;27.58;;
48767;SDS011;34933;40.968;14.538;2022-10-16T09:23:14;28.35;;;23.58;;
48767;SDS011;34933;40.968;14.538;2022-10-16T09:25:59;31.52;;;24.23;;
48767;SDS011;34933;40.968;14.538;2022-10-16T09:28:43;29.60;;;22.05;;
48767;SDS011;34933;40.968;14.538;2022-10-16T09:31:28;30.15;;;20.73;;
48767;SDS011;34933;40.968;14.538;2022-10-16T09:37:21;23.35;;;19.85;;
48767;SDS011;34933;40.968;14.538;2022-10-16T09:40:12;25.98;;;22.08;;
48767;SDS011;34933;40.968;14.538;2022-10-16T09:43:02;25.13;;;21.05;;
48767;SDS011;34933;40.968;14.538;2022-10-16T09:46:07;27.65;;;20.15;;
48767;SDS011;34933;40.968;14.538;2022-10-16T09:49:16;35.08;;;24.33;;
48767;SDS011;34933;40.968;14.538;2022-10-16T09:52:05;25.73;;;21.45;;
48767;SDS011;34933;40.968;14.538;2022-10-16T09:55:01;26.08;;;20.92;;
48767;SDS011;34933;40.968;14.538;2022-10-16T09:57:55;26.05;;;19.48;;
48767;SDS011;34933;40.968;14.538;2022-10-16T10:00:41;24.90;;;18.65;;
48767;SDS011;34933;40.968;14.538;2022-10-16T10:03:39;25.90;;;19.10;;
48767;SDS011;34933;40.968;14.538;2022-10-16T10:06:26;22.55;;;18.15;;
48767;SDS011;34933;40.968;14.538;2022-10-16T10:12:26;24.67;;;20.88;;
48767;SDS011;34933;40.968;14.538;2022-10-16T10:18:14;28.08;;;22.00;;
48767;SDS011;34933;40.968;14.538;2022-10-16T10:21:02;27.17;;;21.17;;
48767;SDS011;34933;40.968;14.538;2022-10-16T10:23:55;24.80;;;19.85;;
48767;SDS011;34933;40.968;14.538;2022-10-16T10:32:54;26.08;;;19.40;;
48767;SDS011;34933;40.968;14.538;2022-10-16T10:36:37;22.55;;;19.23;;
48767;SDS011;34933;40.968;14.538;2022-10-16T10:39:40;23.33;;;18.33;;
48767;SDS011;34933;40.968;14.538;2022-10-16T10:45:40;21.67;;;18.08;;
48767;SDS011;34933;40.968;14.538;2022-10-16T10:51:21;20.63;;;16.52;;
48767;SDS011;34933;40.968;14.538;2022-10-16T10:54:14;21.38;;;15.70;;
48767;SDS011;34933;40.968;14.538;2022-10-16T10:57:10;22.60;;;15.15;;
48767;SDS011;34933;40.968;14.538;2022-10-16T11:05:56;18.10;;;14.95;;
48767;SDS011;34933;40.968;14.538;2022-10-16T11:11:57;17.42;;;14.27;;
48767;SDS011;34933;40.968;14.538;2022-10-16T11:20:54;16.75;;;14.80;;
48767;SDS011;34933;40.968;14.538;2022-10-16T11:24:04;21.08;;;18.65;;
48767;SDS011;34933;40.968;14.538;2022-10-16T11:26:58;15.02;;;13.15;;
48767;SDS011;34933;40.968;14.538;2022-10-16T11:29:54;21.80;;;14.85;;
48767;SDS011;34933;40.968;14.538;2022-10-16T11:36:00;18.85;;;15.77;;
48767;SDS011;34933;40.968;14.538;2022-10-16T11:47:44;15.50;;;13.75;;
48767;SDS011;34933;40.968;14.538;2022-10-16T11:53:46;15.50;;;13.73;;
48767;SDS011;34933;40.968;14.538;2022-10-16T11:56:45;15.82;;;13.82;;
48767;SDS011;34933;40.968;14.538;2022-10-16T11:59:35;17.42;;;15.63;;
48767;SDS011;34933;40.968;14.538;2022-10-16T12:02:30;14.02;;;12.65;;
48767;SDS011;34933;40.968;14.538;2022-10-16T12:08:28;19.02;;;13.88;;
48767;SDS011;34933;40.968;14.538;2022-10-16T12:14:59;18.30;;;14.35;;
48767;SDS011;34933;40.968;14.538;2022-10-16T12:17:35;20.40;;;15.52;;
48767;SDS011;34933;40.968;14.538;2022-10-16T12:23:06;14.52;;;13.00;;
48767;SDS011;34933;40.968;14.538;2022-10-16T12:26:04;19.58;;;15.55;;
48767;SDS011;34933;40.968;14.538;2022-10-16T12:28:49;17.77;;;15.32;;
48767;SDS011;34933;40.968;14.538;2022-10-16T12:31:45;16.55;;;14.02;;
48767;SDS011;34933;40.968;14.538;2022-10-16T12:34:36;16.27;;;14.02;;
48767;SDS011;34933;40.968;14.538;2022-10-16T12:37:26;49.58;;;17.67;;
48767;SDS011;34933;40.968;14.538;2022-10-16T12:43:12;15.85;;;14.27;;
48767;SDS011;34933;40.968;14.538;2022-10-16T12:51:56;16.27;;;11.98;;
48767;SDS011;34933;40.968;14.538;2022-10-16T12:54:41;15.60;;;13.10;;
48767;SDS011;34933;40.968;14.538;2022-10-16T13:03:58;15.57;;;13.98;;
48767;SDS011;34933;40.968;14.538;2022-10-16T13:10:26;15.68;;;13.18;;
48767;SDS011;34933;40.968;14.538;2022-10-16T13:22:55;14.13;;;12.13;;
48767;SDS011;34933;40.968;14.538;2022-10-16T13:26:34;15.98;;;13.30;;
48767;SDS011;34933;40.968;14.538;2022-10-16T13:29:07;15.90;;;13.68;;
48767;SDS011;34933;40.968;14.538;2022-10-16T13:31:51;14.48;;;13.07;;
48767;SDS011;34933;40.968;14.538;2022-10-16T13:34:43;15.80;;;13.52;;
48767;SDS011;34933;40.968;14.538;2022-10-16T13:37:28;13.07;;;11.77;;
48767;SDS011;34933;40.968;14.538;2022-10-16T13:43:05;14.85;;;13.02;;
48767;SDS011;34933;40.968;14.538;2022-10-16T13:45:56;15.23;;;12.85;;
48767;SDS011;34933;40.968;14.538;2022-10-16T13:51:54;15.48;;;13.77;;
48767;SDS011;34933;40.968;14.538;2022-10-16T13:54:40;14.77;;;13.23;;
48767;SDS011;34933;40.968;14.538;2022-10-16T13:57:25;17.17;;;15.00;;
48767;SDS011;34933;40.968;14.538;2022-10-16T14:03:04;17.98;;;15.57;;
48767;SDS011;34933;40.968;14.538;2022-10-16T14:08:40;16.50;;;14.50;;
48767;SDS011;34933;40.968;14.538;2022-10-16T14:11:28;15.10;;;13.48;;
48767;SDS011;34933;40.968;14.538;2022-10-16T14:14:13;17.70;;;14.80;;
48767;SDS011;34933;40.968;14.538;2022-10-16T14:16:59;16.52;;;14.55;;
48767;SDS011;34933;40.968;14.538;2022-10-16T14:19:45;16.52;;;14.95;;
48767;SDS011;34933;40.968;14.538;2022-10-16T14:22:33;15.98;;;13.63;;
48767;SDS011;34933;40.968;14.538;2022-10-16T14:25:24;15.63;;;13.63;;
48767;SDS011;34933;40.968;14.538;2022-10-16T14:31:20;18.10;;;16.20;;
48767;SDS011;34933;40.968;14.538;2022-10-16T14:34:32;16.20;;;14.38;;
48767;SDS011;34933;40.968;14.538;2022-10-16T14:37:22;14.07;;;12.32;;
48767;SDS011;34933;40.968;14.538;2022-10-16T14:40:14;17.17;;;14.88;;
48767;SDS011;34933;40.968;14.538;2022-10-16T14:43:00;13.98;;;12.02;;
48767;SDS011;34933;40.968;14.538;2022-10-16T14:45:49;18.40;;;15.57;;
48767;SDS011;34933;40.968;14.538;2022-10-16T14:48:43;15.65;;;14.05;;
48767;SDS011;34933;40.968;14.538;2022-10-16T14:51:32;17.42;;;15.55;;
48767;SDS011;34933;40.968;14.538;2022-10-16T14:54:17;17.30;;;15.48;;
48767;SDS011;34933;40.968;14.538;2022-10-16T14:57:02;17.23;;;14.43;;
48767;SDS011;34933;40.968;14.538;2022-10-16T14:59:46;21.05;;;16.70;;
48767;SDS011;34933;40.968;14.538;2022-10-16T15:02:33;20.27;;;18.27;;
48767;SDS011;34933;40.968;14.538;2022-10-16T15:05:21;19.83;;;16.83;;
48767;SDS011;34933;40.968;14.538;2022-10-16T15:08:09;19.70;;;17.75;;
48767;SDS011;34933;40.968;14.538;2022-10-16T15:10:53;23.38;;;19.55;;
48767;SDS011;34933;40.968;14.538;2022-10-16T15:13:38;20.65;;;18.58;;
48767;SDS011;34933;40.968;14.538;2022-10-16T15:16:23;21.38;;;19.08;;
48767;SDS011;34933;40.968;14.538;2022-10-16T15:19:07;21.92;;;19.70;;
48767;SDS011;34933;40.968;14.538;2022-10-16T15:21:52;23.20;;;20.73;;
48767;SDS011;34933;40.968;14.538;2022-10-16T15:24:36;23.90;;;19.88;;
48767;SDS011;34933;40.968;14.538;2022-10-16T15:27:21;29.40;;;21.50;;
48767;SDS011;34933;40.968;14.538;2022-10-16T15:30:06;24.63;;;21.92;;
48767;SDS011;34933;40.968;14.538;2022-10-16T15:32:50;28.83;;;21.80;;
48767;SDS011;34933;40.968;14.538;2022-10-16T15:35:35;27.52;;;21.98;;
48767;SDS011;34933;40.968;14.538;2022-10-16T15:38:20;29.90;;;23.20;;
48767;SDS011;34933;40.968;14.538;2022-10-16T15:41:05;28.75;;;24.20;;
48767;SDS011;34933;40.968;14.538;2022-10-16T15:43:50;27.23;;;22.35;;
48767;SDS011;34933;40.968;14.538;2022-10-16T15:46:35;31.00;;;23.88;;
48767;SDS011;34933;40.968;14.538;2022-10-16T15:49:20;30.50;;;25.00;;
48767;SDS011;34933;40.968;14.538;2022-10-16T15:52:05;31.58;;;25.50;;
48767;SDS011;34933;40.968;14.538;2022-10-16T15:54:50;32.53;;;24.90;;
48767;SDS011;34933;40.968;14.538;2022-10-16T15:57:35;34.85;;;28.25;;
48767;SDS011;34933;40.968;14.538;2022-10-16T16:00:22;30.92;;;27.52;;
48767;SDS011;34933;40.968;14.538;2022-10-16T16:03:09;40.33;;;31.88;;
48767;SDS011;34933;40.968;14.538;2022-10-16T16:05:54;44.17;;;33.33;;
48767;SDS011;34933;40.968;14.538;2022-10-16T16:08:39;68.40;;;49.33;;
48767;SDS011;34933;40.968;14.538;2022-10-16T16:11:25;61.47;;;42.63;;
48767;SDS011;34933;40.968;14.538;2022-10-16T16:14:10;60.05;;;42.35;;
48767;SDS011;34933;40.968;14.538;2022-10-16T16:16:57;53.40;;;38.90;;
48767;SDS011;34933;40.968;14.538;2022-10-16T16:19:41;53.78;;;36.88;;
48767;SDS011;34933;40.968;14.538;2022-10-16T16:22:26;52.10;;;35.75;;
48767;SDS011;34933;40.968;14.538;2022-10-16T16:25:11;40.22;;;30.50;;
48767;SDS011;34933;40.968;14.538;2022-10-16T16:27:56;39.10;;;26.85;;
48767;SDS011;34933;40.968;14.538;2022-10-16T16:30:41;32.40;;;23.80;;
48767;SDS011;34933;40.968;14.538;2022-10-16T16:33:25;27.63;;;21.70;;
48767;SDS011;34933;40.968;14.538;2022-10-16T16:36:10;26.65;;;21.38;;
48767;SDS011;34933;40.968;14.538;2022-10-16T16:38:54;27.92;;;21.60;;
48767;SDS011;34933;40.968;14.538;2022-10-16T16:41:40;33.30;;;21.45;;
48767;SDS011;34933;40.968;14.538;2022-10-16T16:44:25;26.20;;;21.27;;
48767;SDS011;34933;40.968;14.538;2022-10-16T16:47:10;26.13;;;20.98;;
48767;SDS011;34933;40.968;14.538;2022-10-16T16:49:54;23.48;;;20.02;;
48767;SDS011;34933;40.968;14.538;2022-10-16T16:52:39;28.00;;;21.27;;
48767;SDS011;34933;40.968;14.538;2022-10-16T16:55:23;33.53;;;22.35;;
48767;SDS011;34933;40.968;14.538;2022-10-16T16:58:08;33.85;;;26.05;;
48767;SDS011;34933;40.968;14.538;2022-10-16T17:00:53;30.55;;;23.40;;
48767;SDS011;34933;40.968;14.538;2022-10-16T17:03:37;30.95;;;23.80;;
48767;SDS011;34933;40.968;14.538;2022-10-16T17:06:26;32.42;;;24.33;;
48767;SDS011;34933;40.968;14.538;2022-10-16T17:09:16;34.92;;;24.08;;
48767;SDS011;34933;40.968;14.538;2022-10-16T17:12:00;30.67;;;24.92;;
48767;SDS011;34933;40.968;14.538;2022-10-16T17:14:45;34.33;;;25.38;;
48767;SDS011;34933;40.968;14.538;2022-10-16T17:17:30;35.50;;;26.10;;
48767;SDS011;34933;40.968;14.538;2022-10-16T17:20:14;36.28;;;26.42;;
48767;SDS011;34933;40.968;14.538;2022-10-16T17:22:59;34.75;;;25.75;;
48767;SDS011;34933;40.968;14.538;2022-10-16T17:25:44;42.88;;;33.20;;
48767;SDS011;34933;40.968;14.538;2022-10-16T17:28:29;31.73;;;26.20;;
48767;SDS011;34933;40.968;14.538;2022-10-16T17:31:15;35.65;;;27.48;;
48767;SDS011;34933;40.968;14.538;2022-10-16T17:34:04;36.30;;;27.13;;
48767;SDS011;34933;40.968;14.538;2022-10-16T17:36:51;28.20;;;24.70;;
48767;SDS011;34933;40.968;14.538;2022-10-16T17:39:36;29.20;;;23.15;;
48767;SDS011;34933;40.968;14.538;2022-10-16T17:42:21;30.40;;;24.17;;
48767;SDS011;34933;40.968;14.538;2022-10-16T17:45:06;35.03;;;24.33;;
48767;SDS011;34933;40.968;14.538;2022-10-16T17:47:51;33.85;;;26.30;;
48767;SDS011;34933;40.968;14.538;2022-10-16T17:50:39;37.10;;;26.38;;
48767;SDS011;34933;40.968;14.538;2022-10-16T17:53:24;29.35;;;22.52;;
48767;SDS011;34933;40.968;14.538;2022-10-16T17:56:10;37.13;;;24.27;;
48767;SDS011;34933;40.968;14.538;2022-10-16T17:58:58;32.65;;;25.75;;
48767;SDS011;34933;40.968;14.538;2022-10-16T18:01:44;36.67;;;25.70;;
48767;SDS011;34933;40.968;14.538;2022-10-16T18:04:29;32.47;;;25.80;;
48767;SDS011;34933;40.968;14.538;2022-10-16T18:07:14;35.70;;;25.98;;
48767;SDS011;34933;40.968;14.538;2022-10-16T18:09:59;36.35;;;24.52;;
48767;SDS011;34933;40.968;14.538;2022-10-16T18:12:45;37.45;;;24.45;;
48767;SDS011;34933;40.968;14.538;2022-10-16T18:15:30;39.58;;;25.83;;
48767;SDS011;34933;40.968;14.538;2022-10-16T18:18:14;36.95;;;24.25;;
48767;SDS011;34933;40.968;14.538;2022-10-16T18:21:00;29.63;;;23.35;;
48767;SDS011;34933;40.968;14.538;2022-10-16T18:23:46;31.60;;;23.20;;